Time,TemperatureF,DewpointF,PressureIn,WindDirection,WindDirectionDegrees,WindSpeedMPH,WindSpeedGustMPH,Humidity,HourlyPrecipIn,Conditions,Clouds,dailyrainin,SoftwareType,DateUTC
2013-01-12 00:02:00,49.6,47.0,29.87,North,0,0.0,2.4,91,0.00,,SCT,0.00,WUHU21623XXSP,2013-01-11 22:02:00,
2013-01-12 00:04:00,49.6,44.7,29.87,North,0,0.0,1.2,83,0.00,,SCT,0.00,WUHU21623XXSP,2013-01-11 22:04:00,
2013-01-12 00:28:00,49.6,44.7,29.86,NNE,23,0.0,0.0,83,0.00,,SCT,0.00,WUHU21623XXSP,2013-01-11 22:28:00,
2013-01-12 01:28:00,46.9,42.6,29.85,NE,45,0.0,0.0,85,0.00,,SCT,0.00,WUHU21623XXSP,2013-01-11 23:28:00,
2013-01-12 02:28:00,46.8,42.8,29.85,NNE,23,3.0,3.0,86,0.00,,SCT,0.00,WUHU21623XXSP,2013-01-12 00:28:00,
2013-01-12 03:28:00,46.2,42.8,29.84,NNE,23,0.0,0.0,88,0.00,,SCT,0.00,WUHU21623XXSP,2013-01-12 01:28:00,
2013-01-12 04:28:00,44.8,41.4,29.83,NNE,23,0.0,0.0,88,0.00,,SCT,0.00,WUHU21623XXSP,2013-01-12 02:28:00,
2013-01-12 05:28:00,44.8,41.4,29.82,NNE,23,4.4,4.4,88,0.00,,SCT,0.00,WUHU21623XXSP,2013-01-12 03:28:00,
2013-01-12 06:28:00,43.5,40.1,29.84,ENE,68,0.0,0.0,88,0.00,,SCT,0.00,WUHU21623XXSP,2013-01-12 04:28:00,
2013-01-12 07:28:00,44.8,41.7,29.83,North,0,0.0,0.0,89,0.00,,SCT,0.00,WUHU21623XXSP,2013-01-12 05:28:00,
2013-01-12 08:28:00,45.3,42.2,29.85,North,0,4.0,4.0,89,0.00,,SCT,0.00,WUHU21623XXSP,2013-01-12 06:28:00,
2013-01-12 09:12:00,49.6,45.0,29.86,ENE,67,1.8,1.8,84,0.00,,SCT,0.00,WUHU21623XXSP,2013-01-12 07:12:00,
2013-01-12 09:17:00,50.4,45.1,29.86,North,0,2.8,6.6,82,0.00,,SCT,0.00,WUHU21623XXSP,2013-01-12 07:17:00,
2013-01-12 09:22:00,50.7,45.1,29.86,ENE,67,3.2,6.6,81,0.00,,SCT,0.00,WUHU21623XXSP,2013-01-12 07:22:00,
2013-01-12 09:27:00,50.7,44.5,29.86,East,90,0.0,5.9,79,0.00,,SCT,0.00,WUHU21623XXSP,2013-01-12 07:27:00,
2013-01-12 09:32:00,50.9,44.0,29.85,NE,45,0.0,3.7,77,0.00,,SCT,0.00,WUHU21623XXSP,2013-01-12 07:32:00,
2013-01-12 09:37:00,51.1,44.2,29.85,NE,45,0.0,0.0,77,0.00,,SCT,0.00,WUHU21623XXSP,2013-01-12 07:37:00,
2013-01-12 09:42:00,51.4,44.8,29.85,NNE,22,0.0,0.0,78,0.00,,SCT,0.00,WUHU21623XXSP,2013-01-12 07:42:00,
2013-01-12 09:47:00,52.2,45.3,29.86,NNE,22,0.0,0.0,77,0.00,,SCT,0.00,WUHU21623XXSP,2013-01-12 07:47:00,
2013-01-12 09:52:00,53.1,45.5,29.86,NNE,22,0.0,0.0,75,0.00,,SCT,0.00,WUHU21623XXSP,2013-01-12 07:52:00,
2013-01-12 09:57:00,53.8,45.8,29.86,NNE,22,0.0,4.0,74,0.00,,SCT,0.00,WUHU21623XXSP,2013-01-12 07:57:00,
2013-01-12 10:02:00,54.1,45.7,29.86,NNE,22,2.4,4.4,73,0.00,,SCT,0.00,WUHU21623XXSP,2013-01-12 08:02:00,
2013-01-12 10:07:00,54.5,45.4,29.86,NNE,22,0.0,4.4,71,0.00,,SCT,0.00,WUHU21623XXSP,2013-01-12 08:07:00,
2013-01-12 10:12:00,55.0,45.5,29.86,North,0,0.0,4.2,70,0.00,,SCT,0.00,WUHU21623XXSP,2013-01-12 08:12:00,
2013-01-12 10:17:00,55.6,45.7,29.86,North,0,0.0,2.2,69,0.00,,SCT,0.00,WUHU21623XXSP,2013-01-12 08:17:00,
2013-01-12 10:22:00,56.3,45.6,29.86,North,0,0.0,0.0,67,0.00,,SCT,0.00,WUHU21623XXSP,2013-01-12 08:22:00,
2013-01-12 10:27:00,56.7,45.2,29.86,North,0,0.0,1.8,65,0.00,,SCT,0.00,WUHU21623XXSP,2013-01-12 08:27:00,
2013-01-12 10:32:00,56.8,45.3,29.87,NNW,337,0.0,1.8,65,0.00,,SCT,0.00,WUHU21623XXSP,2013-01-12 08:32:00,
2013-01-12 10:37:00,57.6,45.2,29.86,NW,315,0.0,0.0,63,0.00,,SCT,0.00,WUHU21623XXSP,2013-01-12 08:37:00,
2013-01-12 10:42:00,58.1,44.8,29.86,WSW,247,0.0,1.2,61,0.00,,SCT,0.00,WUHU21623XXSP,2013-01-12 08:42:00,
2013-01-12 10:47:00,58.6,44.9,29.86,SSW,202,0.0,1.2,60,0.00,,SCT,0.00,WUHU21623XXSP,2013-01-12 08:47:00,
2013-01-12 10:52:00,58.3,44.6,29.87,South,180,0.0,2.4,60,0.00,,SCT,0.00,WUHU21623XXSP,2013-01-12 08:52:00,
2013-01-12 10:57:00,57.9,44.7,29.87,SW,225,3.0,5.9,61,0.00,,SCT,0.00,WUHU21623XXSP,2013-01-12 08:57:00,
2013-01-12 11:02:00,57.4,44.6,29.87,SSW,202,0.0,7.9,62,0.00,,SCT,0.00,WUHU21623XXSP,2013-01-12 09:02:00,
2013-01-12 11:07:00,57.4,44.2,29.87,SW,225,0.0,7.9,61,0.00,,SCT,0.00,WUHU21623XXSP,2013-01-12 09:07:00,
2013-01-12 11:12:00,57.0,43.8,29.88,SW,225,4.0,8.9,61,0.00,,SCT,0.00,WUHU21623XXSP,2013-01-12 09:12:00,
2013-01-12 11:17:00,56.8,43.6,29.88,SW,225,2.2,8.9,61,0.00,,SCT,0.00,WUHU21623XXSP,2013-01-12 09:17:00,
2013-01-12 11:22:00,56.8,44.0,29.88,South,180,0.0,7.6,62,0.00,,SCT,0.00,WUHU21623XXSP,2013-01-12 09:22:00,
2013-01-12 11:27:00,56.8,44.5,29.88,WSW,247,0.0,2.8,63,0.00,,SCT,0.00,WUHU21623XXSP,2013-01-12 09:27:00,
2013-01-12 11:32:00,57.0,43.4,29.87,WSW,247,3.2,3.7,60,0.00,,BKN,0.00,WUHU21623XXSP,2013-01-12 09:32:00,
2013-01-12 11:37:00,56.8,43.2,29.87,SW,225,2.4,6.9,60,0.00,,BKN,0.00,WUHU21623XXSP,2013-01-12 09:37:00,
2013-01-12 11:42:00,56.3,43.6,29.87,SW,225,3.2,6.9,62,0.00,,BKN,0.00,WUHU21623XXSP,2013-01-12 09:42:00,
2013-01-12 11:47:00,55.8,43.9,29.86,WSW,247,4.7,7.4,64,0.00,,BKN,0.00,WUHU21623XXSP,2013-01-12 09:47:00,
2013-01-12 11:52:00,55.6,44.1,29.87,WSW,247,6.9,7.4,65,0.00,,BKN,0.00,WUHU21623XXSP,2013-01-12 09:52:00,
2013-01-12 11:57:00,55.0,43.6,29.87,South,180,0.0,9.1,65,0.00,,BKN,0.00,WUHU21623XXSP,2013-01-12 09:57:00,
2013-01-12 12:02:00,55.0,44.0,29.87,WNW,292,0.0,11.1,66,0.00,,BKN,0.00,WUHU21623XXSP,2013-01-12 10:02:00,
2013-01-12 12:07:00,55.0,44.4,29.87,SW,225,0.0,11.1,67,0.00,,BKN,0.00,WUHU21623XXSP,2013-01-12 10:07:00,
2013-01-12 12:12:00,55.4,44.8,29.87,NNE,22,0.0,5.6,67,0.00,,BKN,0.00,WUHU21623XXSP,2013-01-12 10:12:00,
2013-01-12 12:17:00,55.8,44.3,29.86,South,180,0.0,5.6,65,0.00,,BKN,0.00,WUHU21623XXSP,2013-01-12 10:17:00,
2013-01-12 12:22:00,56.5,43.8,29.86,North,0,0.0,5.6,62,0.00,,BKN,0.00,WUHU21623XXSP,2013-01-12 10:22:00,
2013-01-12 12:27:00,56.8,43.2,29.86,NNW,337,0.0,5.9,60,0.00,,BKN,0.00,WUHU21623XXSP,2013-01-12 10:27:00,
2013-01-12 12:32:00,57.0,45.1,29.86,NW,315,0.0,7.9,64,0.00,,BKN,0.00,WUHU21623XXSP,2013-01-12 10:32:00,
2013-01-12 12:37:00,57.6,45.2,29.85,NE,45,0.0,7.9,63,0.00,,BKN,0.00,WUHU21623XXSP,2013-01-12 10:37:00,
2013-01-12 12:42:00,57.7,44.9,29.85,SW,225,5.4,5.4,62,0.00,,BKN,0.00,WUHU21623XXSP,2013-01-12 10:42:00,
2013-01-12 12:47:00,58.1,44.8,29.85,NNW,337,0.0,7.6,61,0.00,,BKN,0.00,WUHU21623XXSP,2013-01-12 10:47:00,
2013-01-12 12:52:00,57.9,45.1,29.85,East,90,0.0,8.9,62,0.00,,FEW,0.00,WUHU21623XXSP,2013-01-12 10:52:00,
2013-01-12 12:57:00,57.9,44.7,29.84,South,180,0.0,11.8,61,0.00,,FEW,0.00,WUHU21623XXSP,2013-01-12 10:57:00,
2013-01-12 13:02:00,57.9,44.7,29.84,SW,225,0.0,14.7,61,0.00,,FEW,0.00,WUHU21623XXSP,2013-01-12 11:02:00,
2013-01-12 13:07:00,57.9,44.7,29.84,North,0,0.0,14.7,61,0.00,,FEW,0.00,WUHU21623XXSP,2013-01-12 11:07:00,
2013-01-12 13:12:00,57.9,44.2,29.85,WSW,247,0.0,11.8,60,0.00,,FEW,0.00,WUHU21623XXSP,2013-01-12 11:12:00,
2013-01-12 13:17:00,58.1,44.0,29.84,South,180,0.0,11.3,59,0.00,,FEW,0.00,WUHU21623XXSP,2013-01-12 11:17:00,
2013-01-12 13:22:00,57.9,43.3,29.84,NNW,337,0.0,11.3,58,0.00,,FEW,0.00,WUHU21623XXSP,2013-01-12 11:22:00,
2013-01-12 13:27:00,58.1,42.1,29.84,West,270,3.0,5.9,55,0.00,,FEW,0.00,WUHU21623XXSP,2013-01-12 11:27:00,
2013-01-12 13:32:00,58.1,43.0,29.84,SSW,202,0.0,5.9,57,0.00,,FEW,0.00,WUHU21623XXSP,2013-01-12 11:32:00,
2013-01-12 13:37:00,58.3,42.8,29.84,WNW,292,0.0,6.6,56,0.00,,FEW,0.00,WUHU21623XXSP,2013-01-12 11:37:00,
2013-01-12 13:42:00,58.5,42.5,29.83,WSW,247,5.6,6.6,55,0.00,,FEW,0.00,WUHU21623XXSP,2013-01-12 11:42:00,
2013-01-12 13:47:00,58.5,42.5,29.84,SW,225,0.0,7.9,55,0.00,,FEW,0.00,WUHU21623XXSP,2013-01-12 11:47:00,
2013-01-12 13:52:00,58.5,42.5,29.84,SW,225,2.0,7.9,55,0.00,,FEW,0.00,WUHU21623XXSP,2013-01-12 11:52:00,
2013-01-12 13:57:00,58.5,42.9,29.84,SSE,157,2.2,6.6,56,0.00,,FEW,0.00,WUHU21623XXSP,2013-01-12 11:57:00,
2013-01-12 14:02:00,58.8,43.7,29.84,SSW,202,0.0,7.2,57,0.00,,FEW,0.00,WUHU21623XXSP,2013-01-12 12:02:00,
2013-01-12 14:07:00,59.0,44.3,29.84,SW,225,0.0,7.2,58,0.00,,FEW,0.00,WUHU21623XXSP,2013-01-12 12:07:00,
2013-01-12 14:12:00,59.2,44.1,29.84,SSW,202,5.2,8.9,57,0.00,,FEW,0.00,WUHU21623XXSP,2013-01-12 12:12:00,
2013-01-12 14:17:00,59.0,43.4,29.84,SE,135,0.0,8.9,56,0.00,,FEW,0.00,WUHU21623XXSP,2013-01-12 12:17:00,
2013-01-12 14:22:00,58.8,44.2,29.85,SSW,202,2.2,7.6,58,0.00,,FEW,0.00,WUHU21623XXSP,2013-01-12 12:22:00,
2013-01-12 14:27:00,59.2,43.6,29.85,SW,225,4.9,7.6,56,0.00,,FEW,0.00,WUHU21623XXSP,2013-01-12 12:27:00,
2013-01-12 14:32:00,59.0,42.9,29.84,WSW,247,4.0,7.6,55,0.00,,FEW,0.00,WUHU21623XXSP,2013-01-12 12:32:00,
2013-01-12 14:37:00,58.6,42.6,29.84,SSW,202,5.9,8.4,55,0.00,,FEW,0.00,WUHU21623XXSP,2013-01-12 12:37:00,
2013-01-12 14:42:00,59.2,44.1,29.85,SW,225,4.2,9.6,57,0.00,,FEW,0.00,WUHU21623XXSP,2013-01-12 12:42:00,
2013-01-12 14:47:00,59.4,44.3,29.85,SW,225,5.6,11.6,57,0.00,,FEW,0.00,WUHU21623XXSP,2013-01-12 12:47:00,
2013-01-12 14:52:00,59.7,45.5,29.85,SW,225,5.4,11.6,59,0.00,,FEW,0.00,WUHU21623XXSP,2013-01-12 12:52:00,
2013-01-12 14:57:00,59.7,45.9,29.85,SSW,202,5.9,10.6,60,0.00,,FEW,0.00,WUHU21623XXSP,2013-01-12 12:57:00,
2013-01-12 15:02:00,59.4,45.6,29.86,SW,225,2.4,10.6,60,0.00,,FEW,0.00,WUHU21623XXSP,2013-01-12 13:02:00,
2013-01-12 15:07:00,58.6,45.3,29.86,NNE,22,0.0,8.1,61,0.00,,FEW,0.00,WUHU21623XXSP,2013-01-12 13:07:00,
2013-01-12 15:12:00,58.5,44.3,29.86,North,0,0.0,10.1,59,0.00,,FEW,0.00,WUHU21623XXSP,2013-01-12 13:12:00,
2013-01-12 15:17:00,58.5,43.4,29.86,SW,225,0.0,10.1,57,0.00,,FEW,0.00,WUHU21623XXSP,2013-01-12 13:17:00,
2013-01-12 15:22:00,58.5,42.9,29.86,NW,315,0.0,8.1,56,0.00,,FEW,0.00,WUHU21623XXSP,2013-01-12 13:22:00,
2013-01-12 15:27:00,58.1,42.6,29.87,SSW,202,0.0,8.1,56,0.00,,FEW,0.00,WUHU21623XXSP,2013-01-12 13:27:00,
2013-01-12 15:32:00,57.9,42.4,29.87,SW,225,0.0,5.2,56,0.00,,FEW,0.00,WUHU21623XXSP,2013-01-12 13:32:00,
2013-01-12 15:37:00,57.7,41.7,29.87,North,0,0.0,6.2,55,0.00,,FEW,0.00,WUHU21623XXSP,2013-01-12 13:37:00,
2013-01-12 15:42:00,57.6,41.6,29.88,NW,315,0.0,6.4,55,0.00,,FEW,0.00,WUHU21623XXSP,2013-01-12 13:42:00,
2013-01-12 15:47:00,57.4,41.9,29.88,WNW,292,7.2,7.2,56,0.00,,SCT,0.00,WUHU21623XXSP,2013-01-12 13:47:00,
2013-01-12 15:52:00,57.4,41.9,29.88,NW,315,0.0,11.6,56,0.00,,SCT,0.00,WUHU21623XXSP,2013-01-12 13:52:00,
2013-01-12 15:57:00,57.0,41.5,29.88,NW,315,0.0,11.6,56,0.00,,SCT,0.00,WUHU21623XXSP,2013-01-12 13:57:00,
2013-01-12 16:02:00,57.0,41.5,29.89,NNE,22,0.0,7.6,56,0.00,,SCT,0.00,WUHU21623XXSP,2013-01-12 14:02:00,
2013-01-12 16:07:00,57.0,42.0,29.88,NW,315,0.0,3.2,57,0.00,,SCT,0.00,WUHU21623XXSP,2013-01-12 14:07:00,
2013-01-12 16:12:00,57.0,42.0,29.89,NNW,337,0.0,3.7,57,0.00,,SCT,0.00,WUHU21623XXSP,2013-01-12 14:12:00,
2013-01-12 16:17:00,56.8,41.8,29.89,NW,315,0.0,3.7,57,0.00,,SCT,0.00,WUHU21623XXSP,2013-01-12 14:17:00,
2013-01-12 16:22:00,57.0,42.0,29.90,WSW,247,0.0,2.8,57,0.00,,SCT,0.00,WUHU21623XXSP,2013-01-12 14:22:00,
2013-01-12 16:27:00,57.2,41.7,29.90,WSW,247,0.0,0.0,56,0.00,,SCT,0.00,WUHU21623XXSP,2013-01-12 14:27:00,
2013-01-12 16:32:00,57.0,41.5,29.90,NE,45,0.0,3.7,56,0.00,,SCT,0.00,WUHU21623XXSP,2013-01-12 14:32:00,
2013-01-12 16:37:00,57.0,42.0,29.90,WNW,292,0.0,5.6,57,0.00,,SCT,0.00,WUHU21623XXSP,2013-01-12 14:37:00,
2013-01-12 16:42:00,56.8,41.8,29.90,NNW,337,0.0,5.6,57,0.00,,SCT,0.00,WUHU21623XXSP,2013-01-12 14:42:00,
2013-01-12 16:47:00,57.0,42.0,29.90,SW,225,0.0,0.0,57,0.00,,SCT,0.00,WUHU21623XXSP,2013-01-12 14:47:00,
2013-01-12 16:52:00,56.8,41.8,29.90,NNW,337,0.0,4.0,57,0.00,,SCT,0.00,WUHU21623XXSP,2013-01-12 14:52:00,
2013-01-12 16:57:00,56.7,42.6,29.90,NNW,337,0.0,7.2,59,0.00,,SCT,0.00,WUHU21623XXSP,2013-01-12 14:57:00,
2013-01-12 17:02:00,56.5,43.3,29.91,NNE,22,0.0,8.4,61,0.00,,SCT,0.00,WUHU21623XXSP,2013-01-12 15:02:00,
2013-01-12 17:07:00,56.1,43.4,29.91,WNW,292,0.0,8.4,62,0.00,,SCT,0.00,WUHU21623XXSP,2013-01-12 15:07:00,
2013-01-12 17:12:00,56.1,43.8,29.91,West,270,3.4,6.2,63,0.00,,SCT,0.00,WUHU21623XXSP,2013-01-12 15:12:00,
2013-01-12 17:17:00,55.8,43.5,29.92,North,0,0.0,6.9,63,0.00,,SCT,0.00,WUHU21623XXSP,2013-01-12 15:17:00,
2013-01-12 17:22:00,55.6,43.7,29.91,NNE,22,0.0,10.8,64,0.00,,SCT,0.00,WUHU21623XXSP,2013-01-12 15:22:00,
2013-01-12 17:27:00,55.6,43.7,29.91,NW,315,0.0,10.8,64,0.00,,SCT,0.00,WUHU21623XXSP,2013-01-12 15:27:00,
2013-01-12 17:32:00,55.6,43.7,29.92,WNW,292,0.0,8.1,64,0.00,,SCT,0.00,WUHU21623XXSP,2013-01-12 15:32:00,
2013-01-12 17:37:00,55.4,43.6,29.92,SSE,157,0.0,8.1,64,0.00,,SCT,0.00,WUHU21623XXSP,2013-01-12 15:37:00,
2013-01-12 17:42:00,55.4,43.1,29.92,NNW,337,0.0,9.8,63,0.00,,SCT,0.00,WUHU21623XXSP,2013-01-12 15:42:00,
2013-01-12 17:47:00,55.2,42.5,29.92,SW,225,0.0,9.8,62,0.00,,SCT,0.00,WUHU21623XXSP,2013-01-12 15:47:00,
2013-01-12 17:52:00,55.4,42.7,29.91,NNW,337,0.0,6.2,62,0.00,,SCT,0.00,WUHU21623XXSP,2013-01-12 15:52:00,
2013-01-12 17:57:00,55.2,42.5,29.92,WSW,247,0.0,3.4,62,0.00,,SCT,0.00,WUHU21623XXSP,2013-01-12 15:57:00,
2013-01-12 18:02:00,55.0,42.3,29.92,West,270,0.0,0.0,62,0.00,,SCT,0.00,WUHU21623XXSP,2013-01-12 16:02:00,
2013-01-12 18:07:00,54.9,42.2,29.92,NNW,337,0.0,2.0,62,0.00,,SCT,0.00,WUHU21623XXSP,2013-01-12 16:07:00,
2013-01-12 18:12:00,54.9,42.2,29.93,SW,225,0.0,2.0,62,0.00,,SCT,0.00,WUHU21623XXSP,2013-01-12 16:12:00,
2013-01-12 18:17:00,54.7,42.1,29.93,NNE,22,0.0,0.0,62,0.00,,SCT,0.00,WUHU21623XXSP,2013-01-12 16:17:00,
2013-01-12 18:22:00,54.5,41.9,29.93,South,180,0.0,0.0,62,0.00,,SCT,0.00,WUHU21623XXSP,2013-01-12 16:22:00,
2013-01-12 18:27:00,54.3,41.7,29.93,North,0,5.2,14.1,62,0.00,,SCT,0.00,WUHU21623XXSP,2013-01-12 16:27:00,
2013-01-12 18:32:00,54.9,41.8,29.94,North,0,1.8,14.1,61,0.00,,SCT,0.00,WUHU21623XXSP,2013-01-12 16:32:00,
2013-01-12 19:28:00,53.4,40.0,29.96,North,0,0.0,0.0,60,0.00,,SCT,0.00,WUHU21623XXSP,2013-01-12 17:28:00,
2013-01-12 20:28:00,54.0,40.5,29.98,NW,315,1.8,1.8,60,0.00,,SCT,0.00,WUHU21623XXSP,2013-01-12 18:28:00,
2013-01-12 21:07:00,52.2,40.5,29.98,NW,315,0.0,0.0,64,0.00,,SCT,0.00,WUHU21623XXSP,2013-01-12 19:07:00,
2013-01-12 21:12:00,52.3,40.6,29.99,NNE,22,0.0,0.0,64,0.00,,FEW,0.00,WUHU21623XXSP,2013-01-12 19:12:00,
2013-01-12 21:17:00,52.3,40.6,29.99,SE,135,0.0,0.0,64,0.00,,FEW,0.00,WUHU21623XXSP,2013-01-12 19:17:00,
2013-01-12 21:22:00,52.3,40.6,29.99,NE,45,0.0,0.0,64,0.00,,FEW,0.00,WUHU21623XXSP,2013-01-12 19:22:00,
2013-01-12 21:27:00,52.3,40.6,30.00,NE,45,0.0,0.0,64,0.00,,FEW,0.00,WUHU21623XXSP,2013-01-12 19:27:00,
2013-01-12 21:32:00,52.0,40.7,30.00,NNW,337,0.0,0.0,65,0.00,,FEW,0.00,WUHU21623XXSP,2013-01-12 19:32:00,
2013-01-12 21:37:00,52.0,40.7,30.00,North,0,0.0,0.0,65,0.00,,FEW,0.00,WUHU21623XXSP,2013-01-12 19:37:00,
2013-01-12 21:42:00,52.3,41.0,30.00,North,0,0.0,0.0,65,0.00,,FEW,0.00,WUHU21623XXSP,2013-01-12 19:42:00,
2013-01-12 21:47:00,52.0,40.7,30.00,NNE,22,0.0,0.0,65,0.00,,FEW,0.00,WUHU21623XXSP,2013-01-12 19:47:00,
2013-01-12 21:52:00,51.6,40.7,30.01,NE,45,0.0,0.0,66,0.00,,FEW,0.00,WUHU21623XXSP,2013-01-12 19:52:00,
2013-01-12 21:57:00,51.3,40.8,30.01,NE,45,0.0,0.0,67,0.00,,FEW,0.00,WUHU21623XXSP,2013-01-12 19:57:00,
2013-01-12 22:02:00,50.7,40.6,30.01,NE,45,0.0,0.0,68,0.00,,FEW,0.00,WUHU21623XXSP,2013-01-12 20:02:00,
2013-01-12 22:07:00,50.7,41.4,30.01,NNE,22,0.0,0.0,70,0.00,,FEW,0.00,WUHU21623XXSP,2013-01-12 20:07:00,
2013-01-12 22:12:00,50.5,41.2,30.01,NE,45,0.0,0.0,70,0.00,,FEW,0.00,WUHU21623XXSP,2013-01-12 20:12:00,
2013-01-12 22:17:00,50.4,41.5,30.01,NW,315,0.0,0.0,71,0.00,,FEW,0.00,WUHU21623XXSP,2013-01-12 20:17:00,
2013-01-12 22:22:00,50.4,41.8,30.02,NW,315,0.0,0.0,72,0.00,,FEW,0.00,WUHU21623XXSP,2013-01-12 20:22:00,
2013-01-12 22:27:00,49.8,41.2,30.02,NNE,22,0.0,0.0,72,0.00,,FEW,0.00,WUHU21623XXSP,2013-01-12 20:27:00,
2013-01-12 22:32:00,49.8,41.9,30.01,NNW,337,0.0,0.0,74,0.00,,FEW,0.00,WUHU21623XXSP,2013-01-12 20:32:00,
2013-01-12 22:37:00,49.8,41.9,30.01,NW,315,0.0,0.0,74,0.00,,FEW,0.00,WUHU21623XXSP,2013-01-12 20:37:00,
2013-01-12 22:42:00,49.3,41.4,30.02,NNE,22,0.0,0.0,74,0.00,,FEW,0.00,WUHU21623XXSP,2013-01-12 20:42:00,
2013-01-12 22:47:00,48.9,41.7,30.02,NNE,22,0.0,0.0,76,0.00,,FEW,0.00,WUHU21623XXSP,2013-01-12 20:47:00,
2013-01-12 22:52:00,48.7,41.5,30.03,North,0,0.0,0.0,76,0.00,,FEW,0.00,WUHU21623XXSP,2013-01-12 20:52:00,
2013-01-12 22:57:00,48.6,41.8,30.03,ENE,67,0.0,0.0,77,0.00,,FEW,0.00,WUHU21623XXSP,2013-01-12 20:57:00,
2013-01-12 23:02:00,48.6,41.8,30.03,North,0,2.4,2.4,77,0.00,,FEW,0.00,WUHU21623XXSP,2013-01-12 21:02:00,
2013-01-12 23:07:00,48.6,41.8,30.03,North,0,0.0,2.8,77,0.00,,FEW,0.00,WUHU21623XXSP,2013-01-12 21:07:00,
2013-01-12 23:12:00,48.0,41.2,30.03,NNE,22,0.0,2.8,77,0.00,,FEW,0.00,WUHU21623XXSP,2013-01-12 21:12:00,
2013-01-12 23:17:00,47.8,41.0,30.03,NNE,22,2.2,2.8,77,0.00,,FEW,0.00,WUHU21623XXSP,2013-01-12 21:17:00,
2013-01-12 23:22:00,47.7,41.2,30.03,North,0,0.0,2.8,78,0.00,,FEW,0.00,WUHU21623XXSP,2013-01-12 21:22:00,
2013-01-12 23:27:00,47.8,41.3,30.03,North,0,0.0,3.4,78,0.00,,FEW,0.00,WUHU21623XXSP,2013-01-12 21:27:00,
2013-01-12 23:32:00,47.7,41.2,30.03,NE,45,0.0,3.4,78,0.00,,FEW,0.00,WUHU21623XXSP,2013-01-12 21:32:00,
2013-01-12 23:37:00,47.7,41.2,30.04,North,0,1.8,3.2,78,0.00,,FEW,0.00,WUHU21623XXSP,2013-01-12 21:37:00,